Terminal Aerodrome Forecast
Issued by NWS

Home | Current Version | Previous Version | Graphics & Text | Print | Product List | Glossary On
Versions: 1 2 3 4 5 6 7 8 9 10 11 12 13 14 15 16 17 18 19 20
000
FTUS42 KMHX 281720
TAFOAJ
TAF
KOAJ 281720Z 2818/2918 05006KT P6SM VCTS BKN035CB BKN050
     FM290300 VRB03KT P6SM BKN080
     FM290700 VRB03KT 5SM BR BKN007 BKN070
     FM291400 02006KT P6SM BKN100
      AMD LTD TO CLD VIS AND WIND=

USA.gov is the U.S. government's official web portal to all federal, state and local government web resources and services.